createdAt,value
2018-06-15T00:00:08.555Z,9.10
2018-06-15T00:02:37.337Z,9.00
2018-06-15T00:05:06.935Z,9.00
2018-06-15T00:07:35.282Z,9.10
2018-06-15T00:10:03.640Z,9.10
2018-06-15T00:12:32.030Z,9.10
2018-06-15T00:15:00.382Z,9.20
2018-06-15T00:17:28.709Z,9.20
2018-06-15T00:19:57.204Z,9.20
2018-06-15T00:22:25.647Z,9.20
2018-06-15T00:24:53.962Z,9.30
2018-06-15T00:27:22.363Z,9.30
2018-06-15T00:29:50.729Z,9.30
2018-06-15T00:32:19.352Z,9.30
2018-06-15T00:34:47.732Z,9.20
2018-06-15T00:37:16.373Z,9.10
2018-06-15T00:39:44.646Z,9.00
2018-06-15T00:42:13.305Z,9.00
2018-06-15T00:44:41.681Z,8.90
2018-06-15T00:47:10.223Z,8.90
2018-06-15T00:49:38.569Z,8.90
2018-06-15T00:52:06.913Z,8.80
2018-06-15T00:54:35.390Z,8.80
2018-06-15T00:57:15.129Z,8.80
2018-06-15T00:59:43.462Z,8.80
2018-06-15T01:02:12.070Z,8.70
2018-06-15T01:04:40.582Z,8.70
2018-06-15T01:07:08.966Z,8.70
2018-06-15T01:09:37.334Z,8.70
2018-06-15T01:12:05.997Z,8.60
2018-06-15T01:14:34.707Z,8.60
2018-06-15T01:17:03.143Z,8.50
2018-06-15T01:19:31.431Z,8.50
2018-06-15T01:21:59.822Z,8.40
2018-06-15T01:24:28.167Z,8.40
2018-06-15T01:29:24.573Z,8.40
2018-06-15T01:31:53.051Z,8.40
2018-06-15T01:34:21.389Z,8.30
2018-06-15T01:36:49.848Z,8.30
2018-06-15T01:39:18.401Z,8.30
2018-06-15T01:41:46.702Z,8.30
2018-06-15T01:44:15.336Z,8.30
2018-06-15T01:46:43.665Z,8.30
2018-06-15T01:49:11.964Z,8.30
2018-06-15T01:51:40.277Z,8.30
2018-06-15T01:54:08.754Z,8.30
2018-06-15T01:56:37.100Z,8.30
2018-06-15T01:59:05.657Z,8.30
2018-06-15T02:01:34.094Z,8.20
2018-06-15T02:04:02.371Z,8.20
2018-06-15T02:06:30.706Z,8.20
2018-06-15T02:08:59.357Z,8.10
2018-06-15T02:11:29.025Z,8.00
2018-06-15T02:13:57.390Z,8.00
2018-06-15T02:16:26.066Z,8.00
2018-06-15T02:18:54.752Z,8.00
2018-06-15T02:21:23.081Z,8.00
2018-06-15T02:23:51.421Z,7.90
2018-06-15T02:26:20.024Z,7.90
2018-06-15T02:28:48.362Z,7.90
2018-06-15T02:31:16.683Z,8.00
2018-06-15T02:33:45.129Z,8.00
2018-06-15T02:36:13.482Z,8.00
2018-06-15T02:38:41.789Z,8.10
2018-06-15T02:41:10.146Z,8.10
2018-06-15T02:43:38.470Z,8.20
2018-06-15T02:46:06.767Z,8.30
2018-06-15T02:48:35.089Z,8.30
2018-06-15T02:51:03.452Z,8.30
2018-06-15T02:53:31.761Z,8.40
2018-06-15T02:56:00.098Z,8.40
2018-06-15T03:00:56.472Z,8.60
2018-06-15T03:03:24.787Z,8.70
2018-06-15T03:05:53.101Z,8.70
2018-06-15T03:08:21.519Z,8.80
2018-06-15T03:10:50.066Z,8.80
2018-06-15T03:13:18.440Z,8.80
2018-06-15T03:15:46.771Z,8.90
2018-06-15T03:18:15.114Z,8.90
2018-06-15T03:20:43.458Z,8.90
2018-06-15T03:23:11.751Z,8.90
2018-06-15T03:25:40.133Z,9.10
2018-06-15T03:30:36.475Z,9.10
2018-06-15T03:33:04.817Z,9.10
2018-06-15T03:35:33.148Z,9.10
2018-06-15T03:38:01.446Z,9.10
2018-06-15T03:40:29.774Z,9.20
2018-06-15T03:42:58.122Z,9.30
2018-06-15T03:45:26.425Z,9.30
2018-06-15T03:47:54.746Z,9.30
2018-06-15T03:50:23.048Z,9.40
2018-06-15T03:52:51.345Z,9.60
2018-06-15T03:55:19.658Z,9.70
2018-06-15T03:57:47.971Z,9.80
2018-06-15T04:00:16.316Z,9.80
2018-06-15T04:02:44.655Z,9.90
2018-06-15T04:05:13.142Z,10.00
2018-06-15T04:10:09.638Z,10.10
2018-06-15T04:12:38.108Z,10.20
2018-06-15T04:15:06.471Z,10.30
2018-06-15T04:17:34.838Z,10.40
2018-06-15T04:20:03.194Z,10.40
2018-06-15T04:22:31.505Z,10.50
2018-06-15T04:25:00.041Z,10.50
2018-06-15T04:27:28.406Z,10.60
2018-06-15T04:29:56.746Z,10.70
2018-06-15T04:32:25.282Z,10.70
2018-06-15T04:34:53.626Z,10.70
2018-06-15T04:37:21.964Z,10.80
2018-06-15T04:39:50.303Z,10.90
2018-06-15T04:42:18.719Z,11.00
2018-06-15T04:44:47.072Z,11.20
2018-06-15T04:47:15.408Z,11.30
2018-06-15T04:49:43.726Z,11.40
2018-06-15T04:52:12.073Z,11.50
2018-06-15T04:54:40.382Z,11.60
2018-06-15T04:57:08.697Z,11.90
2018-06-15T04:59:37.034Z,12.20
2018-06-15T05:02:05.381Z,12.40
2018-06-15T05:04:33.670Z,12.60
2018-06-15T05:07:02.035Z,12.70
2018-06-15T05:09:30.529Z,13.00
2018-06-15T05:11:58.949Z,13.40
2018-06-15T05:14:27.323Z,13.50
2018-06-15T05:16:55.668Z,13.80
2018-06-15T05:19:23.995Z,14.40
2018-06-15T05:21:52.365Z,14.60
2018-06-15T05:24:20.669Z,14.50
2018-06-15T05:26:48.994Z,14.60
2018-06-15T05:29:17.309Z,14.20
2018-06-15T05:31:45.671Z,14.10
2018-06-15T05:34:13.954Z,14.00
2018-06-15T05:36:42.311Z,14.10
2018-06-15T05:39:11.488Z,14.20
2018-06-15T05:41:41.432Z,14.00
2018-06-15T05:44:09.717Z,14.10
2018-06-15T05:46:38.105Z,14.10
2018-06-15T05:49:06.430Z,14.10
2018-06-15T05:51:34.794Z,13.90
2018-06-15T05:54:03.195Z,13.90
2018-06-15T05:56:31.513Z,14.00
2018-06-15T05:58:59.882Z,14.20
2018-06-15T06:01:28.351Z,14.60
2018-06-15T06:03:56.773Z,15.20
2018-06-15T06:06:25.150Z,17.20
2018-06-15T06:08:53.477Z,18.40
2018-06-15T06:11:22.167Z,18.70
2018-06-15T06:13:50.551Z,19.80
2018-06-15T06:16:18.906Z,20.50
2018-06-15T06:18:47.448Z,21.30
2018-06-15T06:21:15.894Z,22.00
2018-06-15T06:23:44.253Z,22.80
2018-06-15T06:26:12.711Z,24.50
2018-06-15T06:28:41.075Z,23.90
2018-06-15T06:31:09.523Z,25.10
2018-06-15T06:33:37.915Z,25.30
2018-06-15T06:36:06.470Z,25.00
2018-06-15T06:38:34.873Z,25.00
2018-06-15T06:41:03.372Z,24.40
2018-06-15T06:43:31.914Z,25.20
2018-06-15T06:46:00.626Z,25.30
2018-06-15T06:48:29.641Z,26.00
2018-06-15T06:50:58.200Z,26.70
2018-06-15T06:53:27.252Z,26.10
2018-06-15T06:55:55.735Z,26.00
2018-06-15T06:58:24.372Z,26.30
2018-06-15T07:00:53.036Z,25.10
2018-06-15T07:03:21.662Z,25.00
2018-06-15T07:05:50.370Z,24.30
2018-06-15T07:08:19.015Z,23.00
2018-06-15T07:10:47.574Z,21.50
2018-06-15T07:13:16.179Z,20.80
2018-06-15T07:17:13.760Z,20.30
2018-06-15T07:19:42.313Z,20.20
2018-06-15T07:22:10.794Z,20.20
2018-06-15T07:24:39.366Z,20.90
2018-06-15T07:27:07.922Z,20.40
2018-06-15T07:29:36.304Z,20.30
2018-06-15T07:34:32.711Z,20.20
2018-06-15T07:37:01.152Z,20.70
2018-06-15T07:39:30.298Z,21.60
2018-06-15T07:41:58.744Z,22.90
2018-06-15T07:44:27.158Z,24.50
2018-06-15T07:46:55.540Z,24.90
2018-06-15T07:49:24.013Z,25.70
2018-06-15T07:51:52.399Z,27.20
2018-06-15T07:54:20.773Z,27.80
2018-06-15T07:56:49.165Z,28.40
2018-06-15T07:59:17.506Z,27.70
2018-06-15T08:01:45.823Z,27.70
2018-06-15T08:04:14.211Z,28.10
2018-06-15T08:06:42.563Z,27.40
2018-06-15T08:09:10.970Z,27.20
2018-06-15T08:11:39.409Z,27.10
2018-06-15T08:14:07.831Z,26.70
2018-06-15T08:16:36.142Z,26.00
2018-06-15T08:19:04.559Z,25.10
2018-06-15T08:21:32.905Z,25.70
2018-06-15T08:24:01.434Z,25.40
2018-06-15T08:26:31.094Z,26.10
2018-06-15T08:28:59.527Z,26.80
2018-06-15T08:31:27.896Z,27.60
2018-06-15T08:33:56.287Z,28.00
2018-06-15T08:36:24.563Z,28.10
2018-06-15T08:38:52.836Z,28.10
2018-06-15T08:41:21.123Z,27.80
2018-06-15T08:43:49.458Z,28.10
2018-06-15T08:46:17.853Z,27.90
2018-06-15T08:48:46.205Z,27.60
2018-06-15T08:51:14.496Z,27.40
2018-06-15T08:53:42.834Z,26.70
2018-06-15T08:56:11.277Z,26.10
2018-06-15T09:01:07.626Z,24.90
2018-06-15T09:03:35.931Z,24.80
2018-06-15T09:06:04.207Z,24.00
2018-06-15T09:08:32.519Z,23.50
2018-06-15T09:11:00.799Z,23.20
2018-06-15T09:13:29.057Z,22.80
2018-06-15T09:15:57.359Z,22.10
2018-06-15T09:18:25.801Z,21.20
2018-06-15T09:20:54.110Z,21.30
2018-06-15T09:23:22.408Z,21.10
2018-06-15T09:25:51.958Z,21.50
2018-06-15T09:28:20.281Z,21.80
2018-06-15T09:30:48.781Z,21.70
2018-06-15T09:33:17.147Z,22.10
2018-06-15T09:38:13.496Z,22.10
2018-06-15T09:40:41.816Z,22.60
2018-06-15T09:43:10.170Z,22.90
2018-06-15T09:45:38.478Z,23.00
2018-06-15T09:48:07.151Z,22.70
2018-06-15T09:50:35.474Z,22.10
2018-06-15T09:53:03.794Z,21.90
2018-06-15T09:55:32.121Z,22.10
2018-06-15T09:58:00.408Z,22.30
2018-06-15T10:00:34.008Z,21.80
2018-06-15T10:03:02.322Z,21.80
2018-06-15T10:05:30.594Z,22.10
2018-06-15T10:07:58.897Z,22.30
2018-06-15T10:10:27.220Z,22.30
2018-06-15T10:12:55.518Z,22.20
2018-06-15T10:15:23.835Z,21.70
2018-06-15T10:17:52.110Z,21.30
2018-06-15T10:20:20.487Z,21.30
2018-06-15T10:22:48.798Z,21.50
2018-06-15T10:25:17.079Z,21.50
2018-06-15T10:27:45.416Z,21.10
2018-06-15T10:30:13.735Z,21.40
2018-06-15T10:32:42.059Z,21.30
2018-06-15T10:35:10.377Z,21.50
2018-06-15T10:37:38.641Z,21.50
2018-06-15T10:40:06.962Z,21.80
2018-06-15T10:42:35.227Z,22.00
2018-06-15T10:47:31.561Z,22.20
2018-06-15T10:49:59.937Z,22.00
2018-06-15T10:52:28.297Z,22.00
2018-06-15T10:54:56.590Z,22.10
2018-06-15T10:57:24.965Z,22.00
2018-06-15T10:59:53.313Z,21.90
2018-06-15T11:02:21.748Z,21.80
2018-06-15T11:04:50.303Z,21.70
2018-06-15T11:07:18.636Z,21.40
2018-06-15T11:09:47.006Z,21.40
2018-06-15T11:12:15.352Z,21.20
2018-06-15T11:14:43.634Z,21.10
2018-06-15T11:17:12.256Z,21.30
2018-06-15T11:19:40.603Z,21.30
2018-06-15T11:22:09.383Z,21.70
2018-06-15T11:24:37.753Z,22.00
2018-06-15T11:27:06.070Z,22.20
2018-06-15T11:29:34.730Z,22.40
2018-06-15T11:32:03.061Z,22.40
2018-06-15T11:34:31.566Z,22.60
2018-06-15T11:37:00.154Z,22.50
2018-06-15T11:39:28.878Z,22.30
2018-06-15T11:41:57.326Z,22.40
2018-06-15T11:46:54.014Z,22.40
2018-06-15T11:49:22.557Z,22.10
2018-06-15T11:51:50.884Z,22.00
2018-06-15T11:54:19.233Z,22.10
2018-06-15T11:56:47.586Z,21.90
2018-06-15T11:59:15.927Z,21.90
2018-06-15T12:01:44.564Z,22.10
2018-06-15T12:04:12.927Z,21.60
2018-06-15T12:06:41.322Z,21.70
2018-06-15T12:09:10.365Z,21.40
2018-06-15T12:11:38.756Z,21.60
2018-06-15T12:14:07.187Z,21.40
2018-06-15T12:16:35.564Z,21.60
2018-06-15T12:19:03.906Z,21.60
2018-06-15T12:21:32.239Z,21.40
2018-06-15T12:24:00.588Z,21.40
2018-06-15T12:26:28.965Z,21.90
2018-06-15T12:28:57.293Z,22.20
2018-06-15T12:31:27.339Z,22.40
2018-06-15T12:33:55.653Z,22.40
2018-06-15T12:36:24.018Z,22.20
2018-06-15T12:38:52.323Z,22.20
2018-06-15T12:41:20.640Z,22.30
2018-06-15T12:43:48.974Z,22.00
2018-06-15T12:46:17.321Z,21.60
2018-06-15T12:48:45.789Z,21.50
2018-06-15T12:51:14.164Z,21.80
2018-06-15T12:53:42.399Z,21.80
2018-06-15T12:56:10.897Z,21.70
2018-06-15T12:58:39.337Z,21.70
2018-06-15T13:01:07.709Z,21.60
2018-06-15T13:03:36.029Z,21.70
2018-06-15T13:06:04.539Z,21.70
2018-06-15T13:08:32.913Z,21.70
2018-06-15T13:11:01.235Z,21.70
2018-06-15T13:13:29.595Z,21.80
2018-06-15T13:15:57.862Z,21.90
2018-06-15T13:18:26.162Z,22.00
2018-06-15T13:20:54.527Z,22.00
2018-06-15T13:23:22.965Z,22.00
2018-06-15T13:25:51.307Z,22.10
2018-06-15T13:28:19.633Z,22.00
2018-06-15T13:30:47.953Z,22.00
2018-06-15T13:35:44.362Z,21.90
2018-06-15T13:38:12.698Z,21.70
2018-06-15T13:40:41.056Z,21.60
2018-06-15T13:43:09.400Z,21.50
2018-06-15T13:45:37.677Z,21.50
2018-06-15T13:48:05.996Z,21.30
2018-06-15T13:50:34.282Z,21.00
2018-06-15T13:53:02.594Z,20.90
2018-06-15T13:55:30.935Z,20.80
2018-06-15T13:57:59.260Z,20.70
2018-06-15T14:00:27.555Z,20.70
2018-06-15T14:02:55.929Z,20.70
2018-06-15T14:05:24.248Z,20.60
2018-06-15T14:07:52.612Z,20.50
2018-06-15T14:10:20.919Z,20.20
2018-06-15T14:12:49.269Z,20.10
2018-06-15T14:15:17.600Z,20.20
2018-06-15T14:17:45.946Z,20.10
2018-06-15T14:20:14.727Z,20.10
2018-06-15T14:22:43.021Z,20.10
2018-06-15T14:25:11.484Z,20.00
2018-06-15T14:30:07.858Z,20.00
2018-06-15T14:32:36.225Z,20.20
2018-06-15T14:35:04.593Z,20.30
2018-06-15T14:37:32.879Z,20.50
2018-06-15T14:40:01.340Z,20.50
2018-06-15T14:42:29.672Z,20.40
2018-06-15T14:44:57.999Z,20.40
2018-06-15T14:47:26.278Z,20.60
2018-06-15T14:49:54.669Z,20.60
2018-06-15T14:52:22.991Z,20.70
2018-06-15T14:54:51.333Z,20.80
2018-06-15T14:57:19.779Z,20.90
2018-06-15T14:59:48.119Z,21.00
2018-06-15T15:02:16.461Z,21.20
2018-06-15T15:04:44.853Z,20.90
2018-06-15T15:07:13.139Z,20.90
2018-06-15T15:09:41.479Z,20.90
2018-06-15T15:12:09.797Z,21.10
2018-06-15T15:14:38.156Z,21.20
2018-06-15T15:17:06.447Z,21.50
2018-06-15T15:19:34.754Z,21.40
2018-06-15T15:22:03.088Z,21.40
2018-06-15T15:24:31.377Z,21.50
2018-06-15T15:26:59.676Z,21.50
2018-06-15T15:29:27.987Z,21.50
2018-06-15T15:31:56.325Z,21.50
2018-06-15T15:34:24.693Z,21.50
2018-06-15T15:36:53.014Z,21.40
2018-06-15T15:39:21.340Z,21.40
2018-06-15T15:41:49.637Z,21.00
2018-06-15T15:44:17.961Z,20.80
2018-06-15T15:46:46.315Z,20.70
2018-06-15T15:49:14.662Z,20.80
2018-06-15T15:51:43.004Z,21.00
2018-06-15T15:54:11.343Z,21.00
2018-06-15T15:56:39.649Z,21.00
2018-06-15T15:59:07.930Z,20.90
2018-06-15T16:01:36.252Z,20.80
2018-06-15T16:04:04.647Z,20.90
2018-06-15T16:06:32.967Z,20.90
2018-06-15T16:09:01.305Z,20.70
2018-06-15T16:11:29.686Z,20.70
2018-06-15T16:13:57.978Z,20.40
2018-06-15T16:16:26.265Z,20.50
2018-06-15T16:18:54.679Z,20.40
2018-06-15T16:21:22.982Z,20.30
2018-06-15T16:23:51.263Z,20.30
2018-06-15T16:26:19.596Z,20.10
2018-06-15T16:28:47.921Z,20.00
2018-06-15T16:31:16.259Z,19.90
2018-06-15T16:33:44.536Z,20.00
2018-06-15T16:36:12.857Z,19.90
2018-06-15T16:38:41.169Z,19.80
2018-06-15T16:41:09.540Z,19.70
2018-06-15T16:43:37.889Z,19.60
2018-06-15T16:46:06.313Z,19.60
2018-06-15T16:48:34.692Z,19.70
2018-06-15T16:51:03.025Z,19.70
2018-06-15T16:53:31.349Z,19.70
2018-06-15T16:55:59.687Z,19.70
2018-06-15T16:58:27.995Z,19.50
2018-06-15T17:00:56.322Z,19.50
2018-06-15T17:03:24.636Z,19.50
2018-06-15T17:05:52.961Z,19.50
2018-06-15T17:08:21.264Z,19.40
2018-06-15T17:10:49.599Z,19.50
2018-06-15T17:13:17.925Z,19.50
2018-06-15T17:15:46.326Z,19.50
2018-06-15T17:18:14.666Z,19.50
2018-06-15T17:20:43.057Z,19.50
2018-06-15T17:23:11.355Z,19.40
2018-06-15T17:25:39.646Z,19.40
2018-06-15T17:28:08.166Z,19.40
2018-06-15T17:33:11.198Z,19.30
2018-06-15T17:35:39.535Z,19.40
2018-06-15T17:38:07.947Z,19.30
2018-06-15T17:40:36.209Z,19.30
2018-06-15T17:43:04.550Z,19.30
2018-06-15T17:45:32.890Z,19.30
2018-06-15T17:48:01.178Z,19.20
2018-06-15T17:50:29.502Z,19.20
2018-06-15T17:52:57.777Z,19.20
2018-06-15T17:55:26.063Z,19.20
2018-06-15T17:57:54.424Z,19.20
2018-06-15T18:00:22.774Z,19.00
2018-06-15T18:02:51.107Z,19.00
2018-06-15T18:05:19.438Z,18.90
2018-06-15T18:07:47.760Z,18.80
2018-06-15T18:10:16.101Z,18.70
2018-06-15T18:12:44.414Z,18.60
2018-06-15T18:15:12.729Z,18.50
2018-06-15T18:17:41.146Z,18.40
2018-06-15T18:20:09.443Z,18.30
2018-06-15T18:22:37.766Z,18.30
2018-06-15T18:25:06.287Z,18.30
2018-06-15T18:27:34.632Z,18.20
2018-06-15T18:30:02.980Z,18.00
2018-06-15T18:32:31.270Z,18.00
2018-06-15T18:34:59.611Z,17.90
2018-06-15T18:37:27.955Z,17.80
2018-06-15T18:39:56.247Z,17.80
2018-06-15T18:42:24.611Z,17.70
2018-06-15T18:44:52.924Z,17.70
2018-06-15T18:47:21.259Z,17.70
2018-06-15T18:49:49.595Z,17.60
2018-06-15T18:52:17.939Z,17.50
2018-06-15T18:54:46.330Z,17.40
2018-06-15T18:59:42.705Z,17.30
2018-06-15T19:02:11.030Z,17.20
2018-06-15T19:04:39.321Z,17.20
2018-06-15T19:07:07.618Z,17.10
2018-06-15T19:09:35.910Z,17.00
2018-06-15T19:12:04.244Z,17.00
2018-06-15T19:14:32.611Z,16.90
2018-06-15T19:17:00.909Z,16.90
2018-06-15T19:19:29.206Z,16.80
2018-06-15T19:21:57.512Z,16.80
2018-06-15T19:24:25.796Z,16.70
2018-06-15T19:26:54.178Z,16.60
2018-06-15T19:29:22.577Z,16.50
2018-06-15T19:31:50.888Z,16.50
2018-06-15T19:34:19.235Z,16.40
2018-06-15T19:36:47.585Z,16.40
2018-06-15T19:39:15.938Z,16.30
2018-06-15T19:41:44.257Z,16.30
2018-06-15T19:44:12.590Z,16.10
2018-06-15T19:46:40.931Z,16.00
2018-06-15T19:49:09.273Z,15.90
2018-06-15T19:51:37.599Z,15.80
2018-06-15T19:54:05.991Z,15.70
2018-06-15T19:56:34.282Z,15.60
2018-06-15T19:59:02.647Z,15.50
2018-06-15T20:01:30.951Z,15.40
2018-06-15T20:03:59.275Z,15.30
2018-06-15T20:06:27.586Z,15.20
2018-06-15T20:08:55.903Z,15.10
2018-06-15T20:11:24.171Z,15.10
2018-06-15T20:13:52.441Z,15.00
2018-06-15T20:16:20.715Z,14.90
2018-06-15T20:18:49.073Z,14.90
2018-06-15T20:21:17.366Z,14.80
2018-06-15T20:23:45.638Z,14.80
2018-06-15T20:26:13.974Z,14.70
2018-06-15T20:28:42.279Z,14.70
2018-06-15T20:31:10.795Z,14.60
2018-06-15T20:36:07.221Z,14.50
2018-06-15T20:38:35.483Z,14.50
2018-06-15T20:41:03.791Z,14.40
2018-06-15T20:43:32.202Z,14.40
2018-06-15T20:46:00.480Z,14.40
2018-06-15T20:48:28.765Z,14.30
2018-06-15T20:50:57.076Z,14.20
2018-06-15T20:53:25.542Z,14.10
2018-06-15T20:55:53.889Z,13.90
2018-06-15T20:58:22.220Z,13.60
2018-06-15T21:00:50.487Z,13.40
2018-06-15T21:03:18.826Z,13.40
2018-06-15T21:05:47.130Z,13.30
2018-06-15T21:08:15.434Z,13.20
2018-06-15T21:10:43.751Z,13.20
2018-06-15T21:13:12.051Z,13.10
2018-06-15T21:15:41.305Z,13.20
2018-06-15T21:18:09.607Z,13.10
2018-06-15T21:20:37.924Z,13.10
2018-06-15T21:23:06.323Z,13.00
2018-06-15T21:25:34.641Z,13.00
2018-06-15T21:28:02.954Z,13.00
2018-06-15T21:30:31.243Z,13.00
2018-06-15T21:32:59.556Z,12.90
2018-06-15T21:35:27.889Z,12.90
2018-06-15T21:37:56.155Z,12.90
2018-06-15T21:40:24.506Z,12.90
2018-06-15T21:42:52.782Z,12.90
2018-06-15T21:45:21.117Z,12.90
2018-06-15T21:47:49.435Z,12.80
2018-06-15T21:50:17.764Z,12.70
2018-06-15T21:52:46.050Z,12.70
2018-06-15T21:55:14.394Z,12.60
2018-06-15T21:57:42.697Z,12.60
2018-06-15T22:00:10.978Z,12.50
2018-06-15T22:02:39.267Z,12.50
2018-06-15T22:05:07.618Z,12.50
2018-06-15T22:07:35.949Z,12.40
2018-06-15T22:10:04.258Z,12.40
2018-06-15T22:12:32.574Z,12.30
2018-06-15T22:15:00.893Z,12.30
2018-06-15T22:17:29.180Z,12.40
2018-06-15T22:19:57.468Z,12.40
2018-06-15T22:22:25.765Z,12.50
2018-06-15T22:24:54.257Z,12.40
2018-06-15T22:27:22.575Z,12.50
2018-06-15T22:29:50.855Z,12.50
2018-06-15T22:32:19.190Z,12.50
2018-06-15T22:34:47.532Z,12.40
2018-06-15T22:37:15.831Z,12.40
2018-06-15T22:39:44.161Z,12.40
2018-06-15T22:42:12.456Z,12.30
2018-06-15T22:44:40.757Z,12.30
2018-06-15T22:47:09.084Z,12.30
2018-06-15T22:49:37.381Z,12.20
2018-06-15T22:52:05.804Z,12.20
2018-06-15T22:54:34.097Z,12.30
2018-06-15T22:57:02.441Z,12.30
2018-06-15T22:59:30.765Z,12.30
2018-06-15T23:01:59.099Z,12.30
2018-06-15T23:04:27.399Z,12.20
2018-06-15T23:06:55.721Z,12.30
2018-06-15T23:09:23.986Z,12.20
2018-06-15T23:11:52.291Z,12.20
2018-06-15T23:16:48.641Z,12.10
2018-06-15T23:19:16.938Z,12.10
2018-06-15T23:21:45.277Z,12.10
2018-06-15T23:24:13.538Z,12.10
2018-06-15T23:26:41.868Z,12.00
2018-06-15T23:29:10.174Z,12.00
2018-06-15T23:31:38.486Z,11.90
2018-06-15T23:34:07.068Z,11.80
2018-06-15T23:36:35.392Z,11.90
2018-06-15T23:39:05.057Z,11.90
2018-06-15T23:41:33.353Z,12.00
2018-06-15T23:44:01.655Z,12.00
2018-06-15T23:46:29.947Z,12.10
2018-06-15T23:48:58.252Z,12.10
2018-06-15T23:51:26.567Z,12.10
2018-06-15T23:53:54.876Z,12.20
2018-06-15T23:56:23.216Z,12.20
2018-06-15T23:58:51.505Z,12.30
